createdAt,value
2018-02-12T00:01:13.438Z,0.90
2018-02-12T00:03:49.797Z,1.00
2018-02-12T00:06:32.980Z,0.80
2018-02-12T00:09:08.250Z,0.90
2018-02-12T00:11:45.010Z,0.80
2018-02-12T00:14:20.723Z,0.80
2018-02-12T00:16:53.628Z,0.80
2018-02-12T00:19:28.218Z,0.80
2018-02-12T00:22:05.000Z,0.80
2018-02-12T00:24:38.597Z,0.80
2018-02-12T00:27:14.911Z,0.80
2018-02-12T00:29:49.564Z,0.80
2018-02-12T00:32:29.829Z,0.80
2018-02-12T00:35:06.124Z,0.90
2018-02-12T00:37:42.002Z,0.80
2018-02-12T00:40:15.655Z,0.90
2018-02-12T00:42:49.187Z,0.90
2018-02-12T00:45:23.034Z,0.90
2018-02-12T00:48:01.167Z,0.90
2018-02-12T00:50:36.048Z,0.90
2018-02-12T00:53:09.168Z,0.90
2018-02-12T00:55:39.355Z,1.00
2018-02-12T00:58:09.681Z,1.00
2018-02-12T01:00:40.779Z,1.00
2018-02-12T01:03:11.194Z,1.00
2018-02-12T01:05:43.379Z,1.00
2018-02-12T01:08:14.025Z,1.00
2018-02-12T01:10:44.539Z,1.00
2018-02-12T01:13:14.995Z,1.00
2018-02-12T01:15:45.423Z,1.00
2018-02-12T01:18:16.916Z,1.00
2018-02-12T01:20:47.191Z,1.00
2018-02-12T01:23:17.567Z,1.00
2018-02-12T01:25:47.919Z,1.00
2018-02-12T01:28:19.166Z,1.00
2018-02-12T01:30:50.238Z,1.00
2018-02-12T01:33:20.855Z,1.00
2018-02-12T01:35:51.276Z,1.00
2018-02-12T01:38:21.707Z,1.00
2018-02-12T01:40:52.031Z,1.00
2018-02-12T01:43:22.607Z,1.00
2018-02-12T01:45:53.375Z,1.00
2018-02-12T01:48:23.615Z,1.00
2018-02-12T01:50:54.123Z,1.00
2018-02-12T01:53:24.355Z,1.00
2018-02-12T01:55:54.668Z,1.00
2018-02-12T01:58:25.736Z,0.90
2018-02-12T02:00:56.524Z,0.90
2018-02-12T02:03:26.931Z,1.00
2018-02-12T02:05:57.044Z,1.00
2018-02-12T02:08:27.270Z,1.00
2018-02-12T02:10:57.690Z,0.90
2018-02-12T02:13:27.984Z,0.90
2018-02-12T02:15:59.247Z,0.90
2018-02-12T02:18:29.638Z,0.90
2018-02-12T02:21:00.734Z,1.00
2018-02-12T02:23:31.186Z,0.90
2018-02-12T02:26:01.336Z,0.90
2018-02-12T02:28:31.658Z,0.90
2018-02-12T02:31:02.543Z,1.00
2018-02-12T02:33:32.979Z,0.90
2018-02-12T02:36:02.987Z,1.00
2018-02-12T02:38:33.299Z,1.00
2018-02-12T02:41:03.490Z,1.00
2018-02-12T02:43:33.602Z,1.00
2018-02-12T02:46:04.535Z,1.00
2018-02-12T02:48:34.863Z,1.00
2018-02-12T02:51:05.377Z,1.00
2018-02-12T02:53:36.279Z,1.00
2018-02-12T02:56:06.330Z,1.00
2018-02-12T02:58:37.815Z,0.90
2018-02-12T03:01:07.839Z,0.90
2018-02-12T03:03:38.409Z,0.90
2018-02-12T03:06:08.560Z,0.90
2018-02-12T03:08:38.630Z,1.00
2018-02-12T03:11:08.748Z,1.00
2018-02-12T03:13:40.050Z,1.00
2018-02-12T03:16:10.263Z,1.00
2018-02-12T03:18:40.600Z,1.00
2018-02-12T03:21:11.672Z,1.00
2018-02-12T03:23:41.806Z,1.00
2018-02-12T03:26:12.843Z,1.00
2018-02-12T03:28:43.241Z,1.00
2018-02-12T03:31:13.448Z,1.00
2018-02-12T03:33:43.554Z,1.00
2018-02-12T03:36:14.695Z,1.00
2018-02-12T03:38:45.019Z,1.00
2018-02-12T03:41:15.710Z,1.00
2018-02-12T03:43:46.375Z,1.00
2018-02-12T03:46:17.481Z,1.00
2018-02-12T03:48:47.427Z,1.00
2018-02-12T03:51:18.199Z,1.00
2018-02-12T03:53:49.015Z,1.00
2018-02-12T03:56:19.126Z,1.00
2018-02-12T03:58:49.461Z,1.00
2018-02-12T04:01:20.235Z,1.00
2018-02-12T04:03:50.654Z,1.00
2018-02-12T04:06:20.642Z,1.00
2018-02-12T04:08:51.047Z,1.00
2018-02-12T04:11:22.099Z,1.00
2018-02-12T04:13:52.376Z,1.00
2018-02-12T04:16:22.690Z,1.00
2018-02-12T04:18:53.411Z,0.90
2018-02-12T04:21:23.371Z,0.90
2018-02-12T04:23:53.736Z,0.90
2018-02-12T04:26:23.697Z,0.90
2018-02-12T04:28:55.212Z,0.90
2018-02-12T04:31:25.511Z,0.90
2018-02-12T04:36:32.495Z,0.90
2018-02-12T04:39:03.595Z,0.90
2018-02-12T04:41:33.923Z,0.90
2018-02-12T04:44:04.705Z,1.00
2018-02-12T04:46:35.215Z,1.00
2018-02-12T04:49:05.547Z,1.00
2018-02-12T04:51:36.283Z,1.00
2018-02-12T04:54:07.051Z,1.00
2018-02-12T04:56:37.491Z,1.00
2018-02-12T04:59:07.506Z,1.10
2018-02-12T05:01:37.450Z,1.10
2018-02-12T05:04:07.906Z,1.10
2018-02-12T05:06:38.436Z,1.20
2018-02-12T05:09:08.679Z,1.20
2018-02-12T05:11:39.195Z,1.20
2018-02-12T05:14:09.979Z,1.20
2018-02-12T05:16:40.112Z,1.20
2018-02-12T05:19:10.453Z,1.20
2018-02-12T05:21:41.178Z,1.20
2018-02-12T05:24:12.151Z,1.20
2018-02-12T05:26:42.103Z,1.10
2018-02-12T05:29:12.362Z,1.10
2018-02-12T05:31:42.632Z,1.10
2018-02-12T05:34:12.700Z,1.10
2018-02-12T05:36:43.215Z,1.00
2018-02-12T05:39:13.938Z,1.00
2018-02-12T05:41:44.250Z,1.00
2018-02-12T05:44:15.494Z,1.10
2018-02-12T05:46:45.495Z,1.10
2018-02-12T05:49:15.441Z,1.10
2018-02-12T05:51:45.382Z,1.10
2018-02-12T05:54:16.132Z,1.10
2018-02-12T05:56:46.089Z,1.10
2018-02-12T05:59:16.817Z,1.20
2018-02-12T06:01:46.851Z,1.20
2018-02-12T06:04:17.048Z,1.20
2018-02-12T06:06:47.076Z,1.20
2018-02-12T06:09:17.064Z,1.30
2018-02-12T06:11:47.086Z,1.20
2018-02-12T06:14:17.408Z,1.20
2018-02-12T06:16:47.493Z,1.20
2018-02-12T06:19:17.469Z,1.20
2018-02-12T06:21:48.102Z,1.20
2018-02-12T06:24:18.119Z,1.20
2018-02-12T06:26:48.291Z,1.20
2018-02-12T06:29:18.332Z,1.20
2018-02-12T06:31:49.158Z,1.20
2018-02-12T06:34:19.559Z,1.20
2018-02-12T06:36:50.100Z,1.30
2018-02-12T06:39:20.089Z,1.30
2018-02-12T06:41:50.324Z,1.30
2018-02-12T06:44:21.528Z,1.30
2018-02-12T06:46:52.406Z,1.30
2018-02-12T06:49:22.830Z,1.30
2018-02-12T06:51:53.610Z,1.30
2018-02-12T06:54:23.638Z,1.30
2018-02-12T06:56:56.295Z,1.30
2018-02-12T06:59:27.304Z,1.30
2018-02-12T07:01:57.425Z,1.30
2018-02-12T07:04:27.771Z,1.30
2018-02-12T07:06:58.525Z,1.30
2018-02-12T07:09:28.582Z,1.30
2018-02-12T07:11:59.062Z,1.30
2018-02-12T07:14:30.102Z,1.30
2018-02-12T07:17:01.839Z,1.30
2018-02-12T07:19:31.867Z,1.30
2018-02-12T07:22:01.877Z,1.20
2018-02-12T07:24:31.868Z,1.20
2018-02-12T07:27:03.862Z,1.20
2018-02-12T07:29:34.337Z,1.20
2018-02-12T07:32:05.814Z,1.20
2018-02-12T07:34:36.210Z,1.20
2018-02-12T07:37:06.344Z,1.20
2018-02-12T07:39:36.603Z,1.30
2018-02-12T07:42:06.724Z,1.30
2018-02-12T07:44:37.044Z,1.40
2018-02-12T07:47:07.043Z,1.40
2018-02-12T07:49:37.198Z,1.40
2018-02-12T07:52:07.286Z,1.40
2018-02-12T07:54:37.293Z,1.40
2018-02-12T07:57:07.495Z,1.40
2018-02-12T07:59:38.338Z,1.30
2018-02-12T08:02:08.353Z,1.30
2018-02-12T08:04:38.418Z,1.30
2018-02-12T08:07:08.462Z,1.30
2018-02-12T08:09:39.235Z,1.40
2018-02-12T08:12:09.285Z,1.40
2018-02-12T08:14:39.634Z,1.40
2018-02-12T08:17:09.732Z,1.40
2018-02-12T08:19:39.749Z,1.30
2018-02-12T08:22:09.831Z,1.30
2018-02-12T08:24:39.842Z,1.30
2018-02-12T08:33:54.426Z,1.30
2018-02-12T08:36:25.190Z,1.40
2018-02-12T08:38:55.584Z,1.40
2018-02-12T08:42:55.898Z,1.50
2018-02-12T08:45:25.962Z,1.50
2018-02-12T08:47:56.131Z,1.60
2018-02-12T08:50:26.156Z,1.60
2018-02-12T08:52:57.304Z,1.70
2018-02-12T08:55:28.155Z,1.60
2018-02-12T08:57:58.467Z,1.60
2018-02-12T09:00:28.571Z,1.60
2018-02-12T09:02:58.607Z,1.60
2018-02-12T09:05:28.638Z,1.50
2018-02-12T09:07:58.737Z,1.30
2018-02-12T09:10:29.724Z,1.20
2018-02-12T09:12:59.761Z,1.20
2018-02-12T09:15:29.823Z,1.20
2018-02-12T09:18:01.169Z,1.20
2018-02-12T09:20:31.275Z,1.20
2018-02-12T09:23:02.691Z,1.20
2018-02-12T09:25:32.772Z,1.20
2018-02-12T09:28:02.803Z,1.30
2018-02-12T09:30:32.872Z,1.30
2018-02-12T09:33:03.716Z,1.40
2018-02-12T09:35:34.514Z,1.40
2018-02-12T09:38:04.544Z,1.40
2018-02-12T09:40:34.578Z,1.50
2018-02-12T09:43:05.438Z,1.90
2018-02-12T09:45:35.758Z,1.90
2018-02-12T09:48:05.790Z,2.00
2018-02-12T09:50:35.884Z,2.80
2018-02-12T09:53:05.972Z,3.20
2018-02-12T09:55:36.101Z,3.20
2018-02-12T09:58:06.177Z,3.10
2018-02-12T10:00:36.486Z,2.90
2018-02-12T10:03:06.617Z,2.80
2018-02-12T10:05:36.719Z,3.10
2018-02-12T10:08:06.823Z,3.30
2018-02-12T10:10:37.209Z,3.20
2018-02-12T10:13:07.323Z,3.20
2018-02-12T10:15:37.451Z,3.80
2018-02-12T10:18:07.613Z,3.90
2018-02-12T10:20:37.995Z,3.80
2018-02-12T10:23:08.055Z,3.60
2018-02-12T10:25:38.856Z,3.50
2018-02-12T10:28:09.626Z,3.40
2018-02-12T10:30:40.006Z,3.40
2018-02-12T10:33:10.959Z,3.10
2018-02-12T10:35:41.765Z,2.90
2018-02-12T10:38:11.850Z,2.90
2018-02-12T10:40:41.946Z,2.90
2018-02-12T10:43:11.991Z,2.80
2018-02-12T10:45:42.359Z,2.80
2018-02-12T10:48:12.398Z,2.70
2018-02-12T10:50:43.280Z,2.80
2018-02-12T10:53:13.313Z,2.80
2018-02-12T10:55:43.386Z,3.40
2018-02-12T10:58:13.644Z,4.00
2018-02-12T11:00:43.783Z,4.60
2018-02-12T11:03:14.686Z,5.10
2018-02-12T11:05:45.387Z,5.10
2018-02-12T11:08:16.157Z,5.50
2018-02-12T11:10:46.370Z,5.80
2018-02-12T11:13:16.442Z,6.00
2018-02-12T11:15:47.554Z,6.30
2018-02-12T11:18:17.871Z,6.20
2018-02-12T11:20:47.986Z,6.00
2018-02-12T11:23:18.011Z,5.90
2018-02-12T11:25:48.066Z,5.70
2018-02-12T11:28:18.978Z,5.70
2018-02-12T11:30:50.245Z,5.70
2018-02-12T11:33:21.232Z,5.30
2018-02-12T11:35:51.270Z,5.30
2018-02-12T11:38:21.354Z,5.60
2018-02-12T11:40:51.565Z,6.10
2018-02-12T11:43:21.732Z,5.80
2018-02-12T11:45:52.802Z,5.90
2018-02-12T11:48:23.664Z,6.10
2018-02-12T11:50:53.735Z,6.00
2018-02-12T11:53:23.814Z,5.80
2018-02-12T11:55:53.921Z,6.20
2018-02-12T11:58:24.059Z,6.40
2018-02-12T12:00:54.504Z,6.40
2018-02-12T12:03:24.576Z,6.40
2018-02-12T12:05:55.707Z,6.60
2018-02-12T12:08:25.862Z,6.50
2018-02-12T12:10:56.117Z,6.70
2018-02-12T12:13:26.273Z,6.70
2018-02-12T12:15:57.210Z,7.10
2018-02-12T12:18:27.388Z,7.30
2018-02-12T12:20:57.560Z,7.40
2018-02-12T12:23:28.284Z,7.20
2018-02-12T12:25:58.365Z,6.90
2018-02-12T12:28:28.796Z,6.20
2018-02-12T12:30:58.895Z,5.70
2018-02-12T12:33:29.078Z,5.80
2018-02-12T12:35:59.361Z,6.60
2018-02-12T12:38:34.248Z,7.00
2018-02-12T12:41:05.032Z,7.00
2018-02-12T12:43:35.146Z,6.60
2018-02-12T12:46:07.510Z,6.00
2018-02-12T12:48:38.170Z,5.90
2018-02-12T12:51:09.114Z,6.10
2018-02-12T12:53:41.227Z,6.10
2018-02-12T12:56:11.390Z,6.00
2018-02-12T12:58:48.786Z,6.40
2018-02-12T13:01:19.101Z,6.40
2018-02-12T13:03:50.051Z,6.30
2018-02-12T13:06:20.606Z,6.30
2018-02-12T13:08:50.761Z,6.40
2018-02-12T13:11:21.919Z,5.60
2018-02-12T13:13:53.883Z,5.30
2018-02-12T13:16:24.576Z,5.20
2018-02-12T13:18:54.796Z,5.00
2018-02-12T13:21:24.790Z,4.90
2018-02-12T13:23:55.071Z,4.90
2018-02-12T13:26:25.939Z,5.20
2018-02-12T13:28:57.124Z,5.20
2018-02-12T13:31:29.523Z,5.40
2018-02-12T13:33:59.604Z,6.00
2018-02-12T13:36:29.944Z,6.20
2018-02-12T13:39:00.089Z,5.90
2018-02-12T13:41:30.446Z,5.80
2018-02-12T13:44:00.471Z,5.70
2018-02-12T13:46:32.506Z,5.60
2018-02-12T13:49:02.604Z,5.70
2018-02-12T13:51:32.639Z,5.50
2018-02-12T13:54:03.910Z,5.30
2018-02-12T13:56:34.035Z,5.30
2018-02-12T13:59:04.255Z,5.10
2018-02-12T14:01:34.389Z,5.20
2018-02-12T14:04:04.460Z,5.40
2018-02-12T14:06:34.536Z,5.80
2018-02-12T14:09:06.782Z,6.00
2018-02-12T14:11:37.032Z,6.10
2018-02-12T14:14:14.446Z,5.80
2018-02-12T14:16:49.568Z,5.50
2018-02-12T14:19:25.281Z,5.10
2018-02-12T14:21:57.448Z,4.80
2018-02-12T14:24:28.307Z,4.50
2018-02-12T14:26:58.346Z,4.50
2018-02-12T14:29:28.406Z,4.60
2018-02-12T14:31:58.416Z,4.60
2018-02-12T14:34:29.511Z,4.20
2018-02-12T14:36:59.561Z,4.20
2018-02-12T14:39:29.619Z,4.10
2018-02-12T14:41:59.658Z,4.20
2018-02-12T14:44:30.002Z,4.30
2018-02-12T14:47:00.067Z,4.20
2018-02-12T14:49:30.931Z,4.30
2018-02-12T14:52:00.976Z,4.50
2018-02-12T14:54:31.033Z,4.50
2018-02-12T14:57:01.080Z,4.60
2018-02-12T14:59:31.231Z,4.60
2018-02-12T15:02:02.482Z,4.80
2018-02-12T15:04:32.560Z,4.80
2018-02-12T15:07:03.603Z,4.70
2018-02-12T15:09:33.715Z,4.70
2018-02-12T15:12:05.035Z,4.50
2018-02-12T15:14:35.103Z,4.50
2018-02-12T15:17:05.145Z,4.50
2018-02-12T15:19:35.739Z,4.30
2018-02-12T15:22:06.627Z,4.20
2018-02-12T15:24:37.516Z,4.20
2018-02-12T15:27:07.571Z,4.10
2018-02-12T15:29:37.926Z,4.10
2018-02-12T15:32:08.744Z,4.10
2018-02-12T15:34:39.731Z,4.10
2018-02-12T15:37:10.398Z,4.10
2018-02-12T15:39:41.177Z,3.60
2018-02-12T15:42:11.274Z,3.60
2018-02-12T15:44:41.610Z,3.60
2018-02-12T15:47:11.737Z,3.30
2018-02-12T15:49:41.912Z,3.20
2018-02-12T15:52:12.818Z,3.00
2018-02-12T15:54:43.823Z,2.80
2018-02-12T15:57:14.163Z,2.80
2018-02-12T15:59:44.214Z,2.80
2018-02-12T16:02:14.287Z,2.70
2018-02-12T16:04:44.527Z,2.80
2018-02-12T16:07:14.627Z,2.90
2018-02-12T16:09:44.700Z,2.80
2018-02-12T16:12:14.787Z,2.60
2018-02-12T16:14:45.166Z,2.60
2018-02-12T16:17:16.017Z,2.50
2018-02-12T16:19:46.079Z,2.50
2018-02-12T16:22:16.246Z,2.40
2018-02-12T16:24:46.287Z,2.40
2018-02-12T16:27:16.634Z,2.40
2018-02-12T16:29:46.983Z,2.40
2018-02-12T16:32:17.538Z,2.50
2018-02-12T16:34:47.612Z,2.50
2018-02-12T16:37:17.774Z,2.50
2018-02-12T16:39:49.211Z,2.50
2018-02-12T16:44:54.512Z,2.40
2018-02-12T16:47:24.742Z,2.40
2018-02-12T16:49:56.304Z,2.40
2018-02-12T16:52:26.511Z,2.40
2018-02-12T16:54:56.763Z,2.40
2018-02-12T16:57:27.970Z,2.40
2018-02-12T16:59:58.747Z,2.40
2018-02-12T17:02:29.054Z,2.40
2018-02-12T17:05:00.147Z,2.40
2018-02-12T17:07:31.720Z,2.50
2018-02-12T17:10:01.984Z,2.50
2018-02-12T17:12:32.503Z,2.60
2018-02-12T17:15:03.162Z,2.60
2018-02-12T17:17:34.287Z,2.50
2018-02-12T17:20:04.459Z,2.50
2018-02-12T17:22:34.567Z,2.40
2018-02-12T17:25:04.827Z,2.40
2018-02-12T17:27:34.885Z,2.30
2018-02-12T17:30:06.182Z,2.30
2018-02-12T17:32:36.215Z,2.20
2018-02-12T17:35:06.297Z,2.20
2018-02-12T17:37:37.398Z,2.30
2018-02-12T17:40:08.029Z,2.20
2018-02-12T17:42:38.052Z,2.20
2018-02-12T17:45:09.606Z,2.10
2018-02-12T17:47:40.471Z,2.00
2018-02-12T17:50:10.798Z,2.00
2018-02-12T17:52:40.835Z,1.90
2018-02-12T17:55:10.948Z,1.90
2018-02-12T17:57:41.000Z,1.90
2018-02-12T18:00:11.371Z,1.80
2018-02-12T18:02:41.507Z,1.80
2018-02-12T18:05:13.227Z,1.80
2018-02-12T18:07:45.019Z,1.80
2018-02-12T18:10:17.962Z,1.70
2018-02-12T18:12:48.727Z,1.80
2018-02-12T18:15:19.539Z,1.90
2018-02-12T18:17:51.467Z,1.90
2018-02-12T18:20:23.305Z,1.90
2018-02-12T18:22:53.895Z,1.80
2018-02-12T18:25:23.991Z,1.70
2018-02-12T18:27:54.331Z,1.70
2018-02-12T18:30:24.683Z,1.60
2018-02-12T18:32:54.868Z,1.50
2018-02-12T18:35:26.118Z,1.40
2018-02-12T18:37:57.261Z,1.40
2018-02-12T18:40:28.275Z,1.30
2018-02-12T18:42:59.263Z,1.30
2018-02-12T18:45:29.441Z,1.30
2018-02-12T18:47:59.699Z,1.30
2018-02-12T18:50:30.185Z,1.20
2018-02-12T18:53:00.653Z,1.20
2018-02-12T18:55:30.922Z,1.20
2018-02-12T18:58:01.041Z,1.30
2018-02-12T19:00:31.743Z,1.30
2018-02-12T19:03:01.841Z,1.30
2018-02-12T19:05:32.446Z,1.30
2018-02-12T19:08:02.772Z,1.30
2018-02-12T19:10:33.604Z,1.10
2018-02-12T19:13:03.667Z,1.10
2018-02-12T19:15:34.323Z,1.10
2018-02-12T19:18:04.436Z,1.10
2018-02-12T19:20:35.256Z,1.10
2018-02-12T19:23:05.764Z,1.10
2018-02-12T19:25:36.040Z,1.00
2018-02-12T19:28:06.359Z,1.00
2018-02-12T19:30:36.967Z,0.90
2018-02-12T19:33:07.340Z,0.90
2018-02-12T19:35:37.565Z,1.00
2018-02-12T19:38:09.143Z,1.00
2018-02-12T19:40:39.637Z,0.90
2018-02-12T19:43:10.803Z,1.00
2018-02-12T19:45:42.729Z,1.00
2018-02-12T19:48:15.147Z,0.90
2018-02-12T19:50:45.638Z,0.90
2018-02-12T19:53:15.755Z,0.90
2018-02-12T19:55:47.602Z,0.80
2018-02-12T19:58:18.124Z,0.80
2018-02-12T20:00:48.613Z,0.80
2018-02-12T20:03:19.492Z,0.80
2018-02-12T20:05:49.869Z,0.80
2018-02-12T20:08:20.381Z,0.80
2018-02-12T20:10:51.535Z,0.80
2018-02-12T20:13:22.091Z,0.70
2018-02-12T20:15:52.388Z,0.80
2018-02-12T20:18:23.142Z,0.80
2018-02-12T20:20:53.458Z,0.80
2018-02-12T20:23:24.343Z,0.80
2018-02-12T20:25:56.310Z,0.80
2018-02-12T20:28:26.615Z,0.80
2018-02-12T20:30:56.959Z,0.70
2018-02-12T20:33:27.012Z,0.80
2018-02-12T20:35:57.316Z,0.70
2018-02-12T20:38:28.922Z,0.70
2018-02-12T20:40:59.308Z,0.60
2018-02-12T20:43:29.393Z,0.60
2018-02-12T20:45:59.756Z,0.60
2018-02-12T20:48:29.979Z,0.60
2018-02-12T20:51:00.560Z,0.60
2018-02-12T20:53:31.543Z,0.60
2018-02-12T20:56:02.011Z,0.50
2018-02-12T20:58:32.364Z,0.60
2018-02-12T21:01:02.415Z,0.50
2018-02-12T21:03:32.767Z,0.50
2018-02-12T21:06:02.946Z,0.60
2018-02-12T21:08:33.882Z,0.60
2018-02-12T21:11:04.159Z,0.60
2018-02-12T21:13:35.164Z,0.50
2018-02-12T21:16:05.433Z,0.50
2018-02-12T21:18:35.739Z,0.50
2018-02-12T21:21:05.919Z,0.50
2018-02-12T21:23:37.079Z,0.60
2018-02-12T21:26:07.219Z,0.60
2018-02-12T21:28:37.509Z,0.60
2018-02-12T21:31:08.162Z,0.50
2018-02-12T21:33:38.568Z,0.50
2018-02-12T21:36:09.658Z,0.50
2018-02-12T21:38:40.024Z,0.50
2018-02-12T21:41:12.649Z,0.50
2018-02-12T21:43:43.463Z,0.50
2018-02-12T21:46:14.087Z,0.50
2018-02-12T21:48:44.822Z,0.40
2018-02-12T21:51:15.291Z,0.40
2018-02-12T21:53:45.409Z,0.40
2018-02-12T21:56:15.923Z,0.40
2018-02-12T21:58:46.150Z,0.40
2018-02-12T22:01:17.786Z,0.40
2018-02-12T22:03:48.646Z,0.40
2018-02-12T22:06:18.919Z,0.40
2018-02-12T22:08:49.483Z,0.40
2018-02-12T22:11:19.871Z,0.40
2018-02-12T22:13:50.914Z,0.40
2018-02-12T22:16:21.530Z,0.40
2018-02-12T22:18:52.372Z,0.40
2018-02-12T22:21:22.423Z,0.40
2018-02-12T22:23:53.179Z,0.30
2018-02-12T22:26:23.948Z,0.40
2018-02-12T22:28:54.327Z,0.40
2018-02-12T22:31:25.359Z,0.40
2018-02-12T22:33:56.999Z,0.40
2018-02-12T22:36:27.463Z,0.40
2018-02-12T22:38:57.838Z,0.40
2018-02-12T22:41:28.303Z,0.40
2018-02-12T22:43:58.298Z,0.50
2018-02-12T22:46:28.656Z,0.50
2018-02-12T22:48:58.927Z,0.40
2018-02-12T22:51:29.456Z,0.40
2018-02-12T22:53:59.686Z,0.40
2018-02-12T22:56:30.656Z,0.40
2018-02-12T22:59:00.618Z,0.40
2018-02-12T23:01:31.906Z,0.40
2018-02-12T23:04:02.088Z,0.40
2018-02-12T23:06:32.131Z,0.40
2018-02-12T23:09:03.934Z,0.40
2018-02-12T23:11:35.318Z,0.40
2018-02-12T23:14:05.323Z,0.40
2018-02-12T23:16:36.413Z,0.30
2018-02-12T23:19:06.691Z,0.30
2018-02-12T23:21:36.936Z,0.30
2018-02-12T23:24:06.892Z,0.30
2018-02-12T23:26:37.195Z,0.30
2018-02-12T23:29:07.578Z,0.20
2018-02-12T23:31:37.570Z,0.30
2018-02-12T23:34:08.676Z,0.20
2018-02-12T23:36:38.978Z,0.20
2018-02-12T23:39:09.963Z,0.20
2018-02-12T23:41:39.952Z,0.20
2018-02-12T23:44:10.252Z,0.10
2018-02-12T23:46:41.198Z,0.10
2018-02-12T23:49:11.722Z,0.10
2018-02-12T23:51:41.870Z,0.10
2018-02-12T23:54:21.666Z,0.10
2018-02-12T23:56:52.144Z,0.00
2018-02-12T23:59:22.842Z,0.20
